Time;durP1;ratioP1;P1;durP2;ratioP2;P2;SDS_P1;SDS_P2;PMS_P1;PMS_P2;Temp;Humidity;BMP_temperature;BMP_pressure;BME280_temperature;BME280_humidity;BME280_pressure;Samples;Min_cycle;Max_cycle;Signal;HPM_P1;HPM_P2
2021/10/20 00:01:38;;;;;;;19.20;11.93;;;16.60;99.90;;;;;;5053578;28;20489;-77
2021/10/20 00:04:05;;;;;;;21.88;12.13;;;16.70;99.90;;;;;;5053528;28;20482;-78
2021/10/20 00:06:31;;;;;;;22.67;12.38;;;16.70;99.90;;;;;;5053544;28;20100;-77
2021/10/20 00:08:57;;;;;;;20.80;13.02;;;16.70;99.90;;;;;;5053510;28;20033;-77
2021/10/20 00:11:22;;;;;;;;;;;16.70;99.90;;;;;;5053878;28;20079;-77
2021/10/20 00:13:50;;;;;;;22.15;12.30;;;16.80;99.90;;;;;;5053383;28;19905;-77
2021/10/20 00:16:17;;;;;;;20.63;12.48;;;16.80;99.90;;;;;;5052842;28;20504;-77
2021/10/20 00:18:52;;;;;;;22.90;12.52;;;16.90;99.90;;;;;;5052046;28;20029;-78
2021/10/20 00:21:24;;;;;;;21.40;13.90;;;16.80;99.90;;;;;;5053506;28;20041;-77
2021/10/20 00:23:50;;;;;;;24.33;14.63;;;16.80;99.90;;;;;;5068478;28;20025;-77
2021/10/20 00:26:16;;;;;;;22.27;13.90;;;16.80;99.90;;;;;;5053470;28;20029;-78
2021/10/20 00:28:41;;;;;;;;;;;16.80;99.90;;;;;;5053704;28;20047;-77
2021/10/20 00:31:07;;;;;;;22.67;14.43;;;16.90;99.90;;;;;;5053235;28;19904;-78
2021/10/20 00:33:33;;;;;;;;;;;16.80;99.90;;;;;;5053700;28;20036;-77
2021/10/20 00:36:00;;;;;;;24.90;14.32;;;16.80;99.90;;;;;;5053302;28;19909;-78
2021/10/20 00:38:25;;;;;;;24.13;13.93;;;16.80;99.90;;;;;;5053080;28;20094;-78
2021/10/20 00:40:51;;;;;;;;;;;16.90;99.90;;;;;;5053582;28;20544;-78
2021/10/20 00:43:22;;;;;;;21.35;13.50;;;16.90;99.90;;;;;;5053119;28;19931;-78
2021/10/20 00:45:48;;;;;;;23.80;14.57;;;16.90;99.90;;;;;;5053114;28;20052;-78
2021/10/20 00:48:15;;;;;;;21.88;14.13;;;16.90;99.90;;;;;;5051854;28;20028;-77
2021/10/20 00:50:40;;;;;;;23.75;14.40;;;16.90;99.90;;;;;;5051781;28;20024;-78
2021/10/20 00:53:06;;;;;;;;;;;17.10;99.90;;;;;;5053440;28;20020;-78
2021/10/20 00:55:32;;;;;;;23.70;14.68;;;17.00;99.90;;;;;;5051751;28;19995;-78
2021/10/20 00:57:58;;;;;;;;;;;17.00;99.90;;;;;;5068743;28;20029;-77
2021/10/20 01:00:23;;;;;;;24.73;14.90;;;17.10;99.90;;;;;;5053049;28;19936;-77
2021/10/20 01:02:49;;;;;;;;;;;17.10;99.90;;;;;;5053399;28;20017;-77
2021/10/20 01:05:15;;;;;;;25.08;15.45;;;17.20;99.90;;;;;;5052870;28;20285;-78
2021/10/20 01:07:41;;;;;;;26.20;14.25;;;17.20;99.90;;;;;;5053000;28;20032;-78
2021/10/20 01:10:08;;;;;;;;;;;17.20;99.90;;;;;;5068666;28;20033;-77
2021/10/20 01:12:35;;;;;;;23.48;13.80;;;17.30;99.90;;;;;;5068247;28;19912;-77
2021/10/20 01:15:07;;;;;;;22.60;13.77;;;17.30;99.90;;;;;;5051496;28;20056;-78
2021/10/20 01:17:32;;;;;;;22.48;14.50;;;17.30;99.90;;;;;;5052902;28;20109;-78
2021/10/20 01:20:00;;;;;;;;;;;17.30;99.90;;;;;;5051940;28;20445;-77
2021/10/20 01:22:26;;;;;;;23.67;13.68;;;17.20;99.90;;;;;;5052715;28;19909;-78
2021/10/20 01:24:52;;;;;;;;;;;17.20;99.90;;;;;;5051852;28;20538;-78
2021/10/20 01:27:17;;;;;;;24.85;12.25;;;17.20;99.90;;;;;;5051386;28;20003;-78
2021/10/20 01:29:43;;;;;;;;;;;17.20;99.90;;;;;;5056701;28;20047;-78
2021/10/20 01:32:09;;;;;;;26.50;12.45;;;17.30;99.90;;;;;;5056537;28;19928;-77
2021/10/20 01:34:35;;;;;;;;;;;17.30;99.90;;;;;;5056820;28;20106;-77
2021/10/20 01:37:05;;;;;;;22.27;12.07;;;17.40;99.90;;;;;;5056280;28;19916;-77
2021/10/20 01:39:32;;;;;;;22.63;11.90;;;17.40;99.90;;;;;;5056470;28;20112;-77
2021/10/20 01:41:57;;;;;;;28.40;13.88;;;17.30;99.90;;;;;;5056436;28;20060;-78
2021/10/20 01:44:23;;;;;;;;;;;17.40;99.90;;;;;;5056615;28;20045;-78
2021/10/20 01:46:49;;;;;;;29.13;13.85;;;17.40;99.90;;;;;;5056327;28;20336;-78
2021/10/20 01:49:15;;;;;;;25.13;12.20;;;17.40;99.90;;;;;;5056070;28;20052;-78
2021/10/20 01:51:41;;;;;;;26.38;12.35;;;17.40;99.90;;;;;;5056071;28;20119;-78
2021/10/20 01:54:07;;;;;;;;;;;17.40;99.90;;;;;;5056582;28;20453;-78
2021/10/20 01:56:34;;;;;;;36.50;18.83;;;17.20;99.90;;;;;;5054536;28;19978;-79
2021/10/20 01:59:00;;;;;;;33.75;17.33;;;16.90;99.90;;;;;;5055937;28;20009;-78
2021/10/20 02:01:26;;;;;;;28.98;17.05;;;16.80;99.90;;;;;;5055924;28;20025;-79
2021/10/20 02:03:51;;;;;;;;;;;16.70;99.90;;;;;;5071671;28;20490;-79
2021/10/20 02:06:19;;;;;;;34.40;17.00;;;16.80;99.90;;;;;;5056311;28;19912;-79
2021/10/20 02:08:46;;;;;;;32.88;16.80;;;16.70;99.90;;;;;;5055743;28;20033;-79
2021/10/20 02:11:12;;;;;;;32.28;17.17;;;16.80;99.90;;;;;;5055973;28;20036;-78
2021/10/20 02:13:40;;;;;;;;;;;16.70;99.90;;;;;;5056383;28;20021;-79
2021/10/20 02:16:06;;;;;;;32.30;15.88;;;16.70;99.90;;;;;;5055642;28;20373;-79
2021/10/20 02:18:32;;;;;;;26.42;16.30;;;16.70;99.90;;;;;;5054320;28;20504;-79
2021/10/20 02:20:58;;;;;;;35.35;17.10;;;16.70;99.90;;;;;;5055517;28;20021;-79
2021/10/20 02:23:24;;;;;;;;;;;16.70;99.90;;;;;;5056325;28;20166;-80
2021/10/20 02:25:49;;;;;;;29.77;16.10;;;16.70;99.90;;;;;;5055487;28;19905;-80
2021/10/20 02:28:15;;;;;;;;;;;16.70;99.90;;;;;;5056088;28;20083;-80
2021/10/20 02:30:41;;;;;;;27.17;15.55;;;16.70;99.90;;;;;;5054314;28;19908;-80
2021/10/20 02:33:09;;;;;;;28.27;15.43;;;16.70;99.90;;;;;;5055063;28;20397;-80
2021/10/20 02:35:35;;;;;;;27.98;14.63;;;16.70;99.90;;;;;;5055517;28;20024;-80
2021/10/20 02:38:01;;;;;;;29.52;16.70;;;16.70;99.90;;;;;;5055096;28;20494;-80
2021/10/20 02:40:27;;;;;;;29.73;15.50;;;16.60;99.90;;;;;;5054956;28;20013;-80
2021/10/20 02:42:53;;;;;;;;;;;16.50;99.90;;;;;;5056141;28;20024;-81
2021/10/20 02:45:19;;;;;;;30.98;17.38;;;16.50;99.90;;;;;;5053923;28;19928;-81
2021/10/20 02:47:44;;;;;;;33.17;17.25;;;16.50;99.90;;;;;;5070525;28;20029;-81
2021/10/20 02:50:10;;;;;;;;;;;16.50;99.90;;;;;;5055497;28;20029;-81
2021/10/20 02:52:37;;;;;;;26.70;15.77;;;16.40;99.90;;;;;;5055432;28;19904;-82
2021/10/20 02:55:04;;;;;;;27.02;15.45;;;16.40;99.90;;;;;;5055147;28;20057;-81
2021/10/20 02:57:30;;;;;;;22.20;13.38;;;16.30;99.90;;;;;;5055172;28;20025;-81
2021/10/20 02:59:57;;;;;;;;;;;16.30;99.90;;;;;;5055521;28;20032;-81
2021/10/20 03:02:26;;;;;;;27.13;13.20;;;16.20;99.90;;;;;;5055326;28;19905;-81
2021/10/20 03:04:52;;;;;;;19.88;12.13;;;16.20;99.90;;;;;;5055056;28;20021;-81
2021/10/20 03:07:18;;;;;;;21.98;12.32;;;16.30;99.90;;;;;;5053650;28;20021;-80
2021/10/20 03:09:44;;;;;;;;;;;16.30;99.90;;;;;;5055268;28;20505;-81
2021/10/20 03:12:10;;;;;;;20.13;11.90;;;16.30;99.90;;;;;;5055089;28;19905;-81
2021/10/20 03:14:36;;;;;;;20.60;12.00;;;16.30;99.90;;;;;;5053322;28;20519;-81
2021/10/20 03:17:01;;;;;;;;;;;16.30;99.90;;;;;;5055240;28;20028;-81
2021/10/20 03:19:27;;;;;;;22.35;12.10;;;16.30;99.90;;;;;;5054627;28;19908;-80
2021/10/20 03:21:54;;;;;;;23.10;12.82;;;16.30;99.90;;;;;;5054451;28;20049;-81
2021/10/20 03:24:20;;;;;;;23.42;12.30;;;16.30;99.90;;;;;;5054311;28;20108;-80
2021/10/20 03:26:45;;;;;;;;;;;16.40;99.90;;;;;;5054754;28;20151;-80
2021/10/20 03:29:11;;;;;;;23.25;11.82;;;16.30;99.90;;;;;;5054214;28;19976;-80
2021/10/20 03:31:37;;;;;;;21.52;11.85;;;16.40;99.90;;;;;;5053848;28;20052;-79
2021/10/20 03:34:03;;;;;;;22.30;13.57;;;16.40;99.90;;;;;;5054361;28;20029;-79
2021/10/20 03:36:29;;;;;;;23.33;13.13;;;16.40;99.90;;;;;;5052715;28;20052;-79
2021/10/20 03:38:55;;;;;;;23.52;12.73;;;16.40;99.90;;;;;;5053884;28;20071;-79
2021/10/20 03:41:21;;;;;;;;;;;16.50;99.90;;;;;;5054410;28;20025;-79
2021/10/20 03:43:46;;;;;;;23.45;13.20;;;16.50;99.90;;;;;;5054053;28;19905;-79
2021/10/20 03:46:12;;;;;;;;;;;16.50;99.90;;;;;;5054326;28;20021;-79
2021/10/20 03:48:38;;;;;;;27.92;14.77;;;16.50;99.90;;;;;;5053897;28;19911;-79
2021/10/20 03:51:04;;;;;;;27.65;14.40;;;16.40;99.90;;;;;;5053183;28;20029;-79
2021/10/20 03:53:30;;;;;;;25.52;14.68;;;16.50;99.90;;;;;;5052673;28;20029;-78
2021/10/20 03:55:56;;;;;;;;;;;16.40;99.90;;;;;;5054223;28;20087;-79
2021/10/20 03:58:22;;;;;;;24.80;12.80;;;16.40;99.90;;;;;;5053734;28;19909;-78
2021/10/20 04:00:50;;;;;;;25.05;12.57;;;16.40;99.90;;;;;;5053631;28;20025;-78
2021/10/20 04:03:16;;;;;;;24.67;13.05;;;16.40;99.90;;;;;;5068995;28;20021;-78
2021/10/20 04:05:41;;;;;;;;;;;16.40;99.90;;;;;;5053949;28;20482;-78
2021/10/20 04:08:07;;;;;;;25.83;12.15;;;16.40;99.90;;;;;;5053802;28;19912;-78
2021/10/20 04:10:33;;;;;;;;;;;16.40;99.90;;;;;;5053878;28;20517;-78
2021/10/20 04:12:59;;;;;;;20.20;11.07;;;16.40;99.90;;;;;;5052180;28;19911;-78
2021/10/20 04:15:25;;;;;;;;;;;16.40;99.90;;;;;;5053848;28;20033;-78
2021/10/20 04:17:51;;;;;;;20.48;10.45;;;16.40;99.90;;;;;;5053449;28;20438;-78
2021/10/20 04:20:19;;;;;;;17.80;9.98;;;16.40;99.90;;;;;;5053461;28;20017;-78
2021/10/20 04:22:45;;;;;;;18.98;10.32;;;16.40;99.90;;;;;;5053319;28;20024;-78
2021/10/20 04:25:12;;;;;;;25.75;10.23;;;16.40;99.90;;;;;;5053726;28;20100;-78
2021/10/20 04:27:39;;;;;;;25.13;10.82;;;16.40;99.90;;;;;;5051936;28;20074;-78
2021/10/20 04:30:07;;;;;;;18.95;10.82;;;16.40;99.90;;;;;;5051940;28;20028;-77
2021/10/20 04:32:33;;;;;;;23.00;10.73;;;16.40;99.90;;;;;;5052905;28;20124;-78
2021/10/20 04:35:00;;;;;;;;;;;16.40;99.90;;;;;;5053598;28;20107;-78
2021/10/20 04:37:26;;;;;;;21.90;10.65;;;16.40;99.90;;;;;;5053050;28;19909;-78
2021/10/20 04:39:53;;;;;;;21.13;10.85;;;16.40;99.90;;;;;;5051737;28;20028;-78
2021/10/20 04:42:20;;;;;;;24.67;11.02;;;16.40;99.90;;;;;;5051821;28;20021;-78
2021/10/20 04:44:46;;;;;;;20.48;10.68;;;16.50;99.90;;;;;;5068522;28;20036;-78
2021/10/20 04:47:12;;;;;;;23.48;11.38;;;16.50;99.90;;;;;;5053221;28;20504;-78
2021/10/20 04:49:38;;;;;;;;;;;16.50;99.90;;;;;;5053443;28;20029;-78
2021/10/20 04:52:04;;;;;;;26.05;11.57;;;16.60;99.90;;;;;;5053027;28;19905;-79
2021/10/20 04:54:30;;;;;;;24.95;11.30;;;16.60;99.90;;;;;;5068398;28;20033;-79
2021/10/20 04:56:55;;;;;;;;;;;16.60;99.90;;;;;;5053325;28;20389;-79
2021/10/20 04:59:23;;;;;;;25.25;11.10;;;16.50;99.90;;;;;;5053145;28;19912;-79
2021/10/20 05:01:49;;;;;;;22.63;10.98;;;16.50;99.90;;;;;;5052438;28;20363;-79
2021/10/20 05:04:14;;;;;;;;;;;16.50;99.90;;;;;;5072724;28;20036;-80
2021/10/20 05:06:40;;;;;;;22.58;10.38;;;16.50;99.90;;;;;;5057370;28;19904;-80
2021/10/20 05:09:05;;;;;;;;;;;16.60;99.90;;;;;;5057662;28;20025;-80
2021/10/20 05:11:31;;;;;;;21.27;10.82;;;16.60;99.90;;;;;;5057154;28;19943;-80
2021/10/20 05:13:57;;;;;;;;;;;16.60;99.90;;;;;;5072601;28;20432;-80
2021/10/20 05:16:23;;;;;;;19.75;9.07;;;16.70;99.90;;;;;;5055325;28;19912;-80
2021/10/20 05:18:48;;;;;;;;;;;16.70;99.90;;;;;;5055849;28;20024;-80
2021/10/20 05:21:14;;;;;;;23.13;9.20;;;16.70;99.90;;;;;;5056641;28;19909;-80
2021/10/20 05:23:39;;;;;;;;;;;16.70;99.90;;;;;;5055730;28;20064;-79
2021/10/20 05:26:05;;;;;;;20.27;8.68;;;16.80;99.90;;;;;;5071916;28;19951;-80
2021/10/20 05:28:31;;;;;;;;;;;16.80;99.90;;;;;;5057071;28;20017;-79
2021/10/20 05:30:56;;;;;;;26.77;8.93;;;16.80;99.90;;;;;;5056849;28;19905;-79
2021/10/20 05:33:22;;;;;;;23.27;7.80;;;16.80;99.90;;;;;;5056924;28;20021;-79
2021/10/20 05:35:48;;;;;;;;;;;16.90;99.90;;;;;;5055544;28;20036;-78
2021/10/20 05:38:15;;;;;;;22.10;7.72;;;16.90;99.90;;;;;;5054950;28;19931;-79
2021/10/20 05:40:40;;;;;;;;;;;16.90;99.90;;;;;;5056686;28;20092;-78
2021/10/20 05:43:07;;;;;;;22.00;7.18;;;17.00;99.90;;;;;;5054954;28;19999;-78
2021/10/20 05:45:32;;;;;;;19.45;6.32;;;16.90;99.90;;;;;;5056191;28;20052;-79
2021/10/20 05:47:58;;;;;;;;;;;17.00;99.90;;;;;;5056581;28;20474;-78
2021/10/20 05:50:24;;;;;;;22.27;6.22;;;17.00;99.90;;;;;;5056113;28;19915;-79
2021/10/20 05:52:50;;;;;;;;;;;17.00;99.90;;;;;;5056435;28;20025;-78
2021/10/20 05:55:15;;;;;;;21.17;5.55;;;17.10;99.90;;;;;;5056171;28;19904;-78
2021/10/20 05:57:41;;;;;;;;;;;17.00;99.90;;;;;;5056379;28;20025;-78
2021/10/20 06:00:10;;;;;;;22.65;5.80;;;17.10;99.90;;;;;;5054611;28;19930;-78
2021/10/20 06:02:36;;;;;;;18.58;5.95;;;17.00;99.90;;;;;;5055732;28;20043;-79
2021/10/20 06:05:03;;;;;;;;;;;17.00;99.90;;;;;;5056221;28;20063;-78
2021/10/20 06:07:28;;;;;;;20.25;5.82;;;17.10;99.90;;;;;;5056176;28;19905;-78
2021/10/20 06:09:54;;;;;;;;;;;17.00;99.90;;;;;;5056220;28;20162;-78
2021/10/20 06:12:20;;;;;;;22.63;5.80;;;17.00;99.90;;;;;;5055714;28;19936;-78
2021/10/20 06:14:45;;;;;;;;;;;17.00;99.90;;;;;;5055356;28;20021;-78
2021/10/20 06:17:11;;;;;;;23.63;5.45;;;17.00;99.90;;;;;;5055524;28;19915;-79
2021/10/20 06:19:37;;;;;;;;;;;16.90;99.90;;;;;;5056265;28;20032;-78
2021/10/20 06:22:03;;;;;;;19.15;5.55;;;16.90;99.90;;;;;;5055660;28;19908;-77
2021/10/20 06:24:28;;;;;;;;;;;17.00;99.90;;;;;;5055867;28;20021;-78
2021/10/20 06:26:54;;;;;;;23.83;4.93;;;16.90;99.90;;;;;;5055571;28;19963;-79
2021/10/20 06:29:22;;;;;;;;;;;16.90;99.90;;;;;;5054544;28;20461;-77
2021/10/20 06:31:48;;;;;;;20.58;4.97;;;16.80;99.90;;;;;;5070593;28;19913;-78
2021/10/20 06:34:14;;;;;;;;;;;16.80;99.90;;;;;;5055783;28;20557;-78
2021/10/20 06:36:41;;;;;;;22.00;4.65;;;16.80;99.90;;;;;;5055243;28;20277;-78
2021/10/20 06:39:07;;;;;;;19.15;4.65;;;16.90;99.90;;;;;;5053920;28;20021;-78
2021/10/20 06:41:33;;;;;;;21.77;4.97;;;16.90;99.90;;;;;;5053888;28;20071;-78
2021/10/20 06:43:58;;;;;;;;;;;16.90;99.90;;;;;;5055472;28;20025;-78
2021/10/20 06:46:25;;;;;;;22.23;4.88;;;16.90;99.90;;;;;;5055088;28;19940;-78
2021/10/20 06:48:51;;;;;;;17.00;4.45;;;16.90;99.90;;;;;;5055044;28;20026;-78
2021/10/20 06:51:16;;;;;;;;;;;16.90;99.90;;;;;;5055635;28;20025;-78
2021/10/20 06:53:42;;;;;;;24.00;4.97;;;17.00;99.90;;;;;;5053621;28;19908;-78
2021/10/20 06:56:08;;;;;;;;;;;17.00;99.90;;;;;;5053933;28;20404;-78
2021/10/20 06:58:35;;;;;;;20.02;4.55;;;17.00;99.90;;;;;;5054853;28;19905;-78
2021/10/20 07:01:01;;;;;;;24.73;4.90;;;17.00;99.90;;;;;;5054760;28;20462;-78
2021/10/20 07:03:26;;;;;;;;;;;17.10;99.90;;;;;;5055186;28;20051;-78
2021/10/20 07:05:52;;;;;;;18.38;4.32;;;17.10;99.90;;;;;;5070151;28;19905;-78
2021/10/20 07:08:18;;;;;;;;;;;17.10;99.90;;;;;;5055062;28;20393;-78
2021/10/20 07:10:44;;;;;;;22.40;4.63;;;17.10;99.90;;;;;;5055041;28;19983;-78
2021/10/20 07:13:10;;;;;;;;;;;17.20;99.90;;;;;;5055145;28;20013;-78
2021/10/20 07:15:36;;;;;;;18.50;4.05;;;17.40;99.90;;;;;;5054702;28;19912;-78
2021/10/20 07:18:02;;;;;;;19.30;4.03;;;17.50;99.90;;;;;;5054436;28;20032;-78
2021/10/20 07:20:28;;;;;;;19.00;4.53;;;17.70;99.90;;;;;;5053063;28;20492;-78
2021/10/20 07:22:54;;;;;;;21.00;4.30;;;17.90;99.90;;;;;;5054337;28;20021;-78
2021/10/20 07:25:19;;;;;;;21.10;4.50;;;18.20;99.90;;;;;;5051971;28;20036;-79
2021/10/20 07:27:47;;;;;;;22.45;4.90;;;18.70;99.90;;;;;;5054249;28;20099;-78
2021/10/20 07:30:13;;;;;;;21.17;4.22;;;18.60;99.90;;;;;;5054187;28;20056;-78
2021/10/20 07:32:40;;;;;;;20.00;4.50;;;18.50;99.90;;;;;;5053991;28;20051;-79
2021/10/20 07:35:11;;;;;;;21.05;4.47;;;18.30;99.90;;;;;;5052838;28;20394;-78
2021/10/20 07:37:38;;;;;;;20.73;4.22;;;18.60;99.90;;;;;;5054059;28;20226;-79
2021/10/20 07:40:06;;;;;;;21.20;4.70;;;18.70;99.90;;;;;;5054010;28;20013;-78
2021/10/20 07:42:33;;;;;;;17.67;3.88;;;18.70;99.90;;;;;;5053896;28;20025;-78
2021/10/20 07:44:59;;;;;;;21.27;4.90;;;19.50;99.90;;;;;;5053989;28;20025;-78
2021/10/20 07:47:26;;;;;;;19.88;4.47;;;19.40;99.90;;;;;;5052598;28;20036;-78
2021/10/20 07:49:57;;;;;;;21.45;4.22;;;20.00;99.90;;;;;;5053928;28;20071;-79
2021/10/20 07:52:25;;;;;;;19.00;4.18;;;19.80;99.90;;;;;;5052573;28;20037;-79
2021/10/20 07:54:52;;;;;;;23.40;4.93;;;19.10;99.90;;;;;;5054294;28;20032;-78
2021/10/20 07:57:18;;;;;;;20.88;4.35;;;18.60;99.90;;;;;;5053659;28;20043;-78
2021/10/20 07:59:43;;;;;;;20.90;4.70;;;18.20;99.90;;;;;;5053716;28;20481;-78
2021/10/20 08:02:09;;;;;;;;;;;18.10;99.90;;;;;;5052808;28;20108;-78
2021/10/20 08:04:35;;;;;;;22.23;4.40;;;18.00;99.90;;;;;;5052359;28;20280;-78
2021/10/20 08:07:00;;;;;;;;;;;18.00;99.90;;;;;;5054038;28;20086;-78
2021/10/20 08:09:26;;;;;;;26.85;4.70;;;17.90;99.90;;;;;;5068920;28;19950;-78
2021/10/20 08:11:52;;;;;;;;;;;17.80;99.90;;;;;;5053969;28;20043;-77
2021/10/20 08:14:18;;;;;;;21.15;4.15;;;18.00;99.90;;;;;;5053481;28;19905;-78
2021/10/20 08:16:44;;;;;;;;;;;18.00;99.90;;;;;;5054150;28;20047;-79
2021/10/20 08:19:09;;;;;;;19.65;4.00;;;18.10;99.90;;;;;;5053664;28;19904;-78
2021/10/20 08:21:35;;;;;;;;;;;18.10;99.90;;;;;;5053768;28;20017;-78
2021/10/20 08:24:00;;;;;;;20.80;3.85;;;18.20;99.90;;;;;;5053327;28;19911;-79
2021/10/20 08:26:26;;;;;;;25.75;4.97;;;18.60;99.90;;;;;;5053241;28;20025;-78
2021/10/20 08:28:52;;;;;;;19.38;3.78;;;19.50;99.90;;;;;;5053498;28;20076;-78
2021/10/20 08:31:18;;;;;;;18.58;4.00;;;20.90;99.90;;;;;;5052865;28;20033;-78
2021/10/20 08:33:43;;;;;;;14.30;3.72;;;21.20;99.90;;;;;;5053454;28;20084;-78
2021/10/20 08:36:09;;;;;;;20.35;4.10;;;21.50;99.90;;;;;;5053073;28;20108;-78
2021/10/20 08:38:35;;;;;;;20.10;3.70;;;21.30;99.90;;;;;;5052903;28;20119;-79
2021/10/20 08:41:02;;;;;;;19.73;4.50;;;20.90;99.90;;;;;;5051854;28;20401;-78
2021/10/20 08:43:27;;;;;;;19.20;4.15;;;20.70;99.90;;;;;;5053109;28;20497;-77
2021/10/20 08:45:53;;;;;;;17.45;4.00;;;20.50;99.90;;;;;;5053321;28;20021;-79
2021/10/20 08:48:21;;;;;;;19.63;4.18;;;20.50;99.90;;;;;;5053103;28;20028;-78
2021/10/20 08:50:59;;;;;;;21.20;4.30;;;20.10;99.90;;;;;;5053021;28;20055;-78
2021/10/20 08:53:25;;;;;;;20.42;4.40;;;20.10;99.90;;;;;;5053220;28;20032;-78
2021/10/20 08:55:52;;;;;;;20.95;4.18;;;19.90;99.90;;;;;;5053004;28;20036;-79
2021/10/20 08:58:19;;;;;;;23.98;4.93;;;19.80;99.90;;;;;;5053029;28;20056;-79
2021/10/20 09:00:45;;;;;;;21.85;4.25;;;19.90;99.90;;;;;;5052947;28;20029;-78
2021/10/20 09:03:12;;;;;;;24.52;4.30;;;19.60;99.90;;;;;;5051635;28;20044;-78
2021/10/20 09:05:38;;;;;;;22.30;4.97;;;19.50;99.90;;;;;;5052850;28;20028;-78
2021/10/20 09:08:05;;;;;;;24.92;4.68;;;19.60;99.90;;;;;;5051627;28;20025;-79
2021/10/20 09:10:31;;;;;;;20.60;3.83;;;19.90;99.90;;;;;;5052999;28;20031;-79
2021/10/20 09:12:59;;;;;;;17.35;4.38;;;20.50;99.90;;;;;;5052822;28;20021;-79
2021/10/20 09:15:28;;;;;;;21.33;4.18;;;21.30;99.90;;;;;;5052794;28;20524;-78
2021/10/20 09:17:55;;;;;;;18.00;4.10;;;21.10;99.90;;;;;;5051473;28;20025;-79
2021/10/20 09:20:38;;;;;;;20.35;4.43;;;21.30;99.90;;;;;;5052519;28;20029;-78
2021/10/20 09:23:17;;;;;;;20.83;4.38;;;20.40;99.90;;;;;;5052652;28;20032;-79
2021/10/20 09:25:45;;;;;;;19.38;4.55;;;19.80;99.90;;;;;;5052940;28;20036;-78
2021/10/20 09:28:27;;;;;;;21.25;3.55;;;19.60;99.90;;;;;;5052669;28;20517;-78
2021/10/20 09:31:01;;;;;;;16.77;4.13;;;19.80;99.90;;;;;;5052581;28;20097;-78
2021/10/20 09:33:35;;;;;;;20.77;3.80;;;19.90;99.90;;;;;;5051091;28;20039;-78
2021/10/20 09:36:07;;;;;;;21.25;4.28;;;19.60;99.90;;;;;;5052657;28;20032;-78
2021/10/20 09:38:40;;;;;;;22.52;4.13;;;19.50;99.90;;;;;;5052739;28;20033;-78
2021/10/20 09:41:07;;;;;;;19.00;3.50;;;19.40;99.90;;;;;;5052717;28;20111;-78
2021/10/20 09:43:42;;;;;;;23.58;3.95;;;19.50;99.90;;;;;;5052777;28;20032;-78
2021/10/20 09:46:08;;;;;;;17.53;3.70;;;19.40;99.90;;;;;;5052736;28;20021;-78
2021/10/20 09:48:42;;;;;;;23.23;4.88;;;19.50;99.90;;;;;;5052886;28;20448;-78
2021/10/20 09:51:14;;;;;;;19.23;3.67;;;19.30;99.90;;;;;;5054634;28;20029;-78
2021/10/20 09:53:42;;;;;;;22.80;4.15;;;19.70;99.90;;;;;;5054804;28;20029;-79
2021/10/20 09:56:34;;;;;;;22.38;4.13;;;19.60;99.90;;;;;;5054777;28;20029;-78
2021/10/20 09:59:00;;;;;;;23.70;4.32;;;19.70;99.90;;;;;;5056138;28;20083;-78
2021/10/20 10:01:27;;;;;;;20.23;3.80;;;19.60;99.90;;;;;;5055948;28;20021;-78
2021/10/20 10:04:02;;;;;;;21.33;4.63;;;19.60;99.90;;;;;;5055942;28;20025;-78
2021/10/20 10:06:29;;;;;;;20.77;3.92;;;19.50;99.90;;;;;;5054292;28;20032;-78
2021/10/20 10:08:54;;;;;;;20.73;4.18;;;19.60;99.90;;;;;;5054513;28;20024;-78
2021/10/20 10:11:22;;;;;;;22.02;4.32;;;19.70;99.90;;;;;;5054507;28;20112;-78
2021/10/20 10:13:55;;;;;;;25.98;4.53;;;19.50;99.90;;;;;;5055941;28;20021;-78
2021/10/20 10:16:24;;;;;;;22.23;4.25;;;19.40;99.90;;;;;;5055827;28;20021;-78
2021/10/20 10:18:56;;;;;;;26.73;4.20;;;19.50;99.90;;;;;;5055644;28;20025;-78
2021/10/20 10:21:37;;;;;;;21.88;4.10;;;19.40;99.90;;;;;;5055567;28;20031;-78
2021/10/20 10:24:15;;;;;;;17.83;4.18;;;19.50;99.90;;;;;;5055492;28;20100;-79
2021/10/20 10:27:09;;;;;;;22.98;4.10;;;19.40;99.90;;;;;;5055483;28;20025;-78
2021/10/20 10:29:53;;;;;;;25.77;4.05;;;19.30;99.90;;;;;;5055637;28;20112;-78
2021/10/20 10:32:22;;;;;;;25.27;3.80;;;19.30;99.90;;;;;;5055330;28;20044;-78
2021/10/20 10:34:50;;;;;;;24.73;3.97;;;19.20;99.90;;;;;;5055326;28;20021;-78
2021/10/20 10:37:24;;;;;;;27.52;4.63;;;19.20;99.90;;;;;;5055363;28;20081;-78
2021/10/20 10:39:50;;;;;;;26.05;4.50;;;19.20;99.90;;;;;;5053912;28;20378;-78
2021/10/20 10:42:16;;;;;;;27.30;4.55;;;19.10;99.90;;;;;;5055132;28;20025;-78
2021/10/20 10:44:49;;;;;;;;;;;19.00;99.90;;;;;;5055578;28;20435;-78
2021/10/20 10:47:26;;;;;;;22.15;4.45;;;19.10;99.90;;;;;;5055490;28;20003;-78
2021/10/20 10:49:56;;;;;;;24.42;4.75;;;19.00;99.90;;;;;;5055364;28;20048;-78
2021/10/20 10:52:22;;;;;;;19.20;3.85;;;19.00;99.90;;;;;;5055026;28;20029;-78
2021/10/20 10:55:09;;;;;;;24.45;4.13;;;19.20;99.90;;;;;;5054908;28;20047;-78
2021/10/20 10:57:56;;;;;;;22.95;3.83;;;19.40;99.90;;;;;;5053279;28;20464;-78
2021/10/20 11:00:22;;;;;;;33.83;5.03;;;19.20;99.90;;;;;;5053155;28;20028;-78
2021/10/20 11:02:49;;;;;;;29.48;4.43;;;19.20;99.90;;;;;;5054859;28;20029;-78
2021/10/20 11:05:26;;;;;;;23.20;4.72;;;19.30;99.90;;;;;;5054714;28;20032;-78
2021/10/20 11:08:10;;;;;;;22.98;4.10;;;19.50;99.90;;;;;;5054940;28;20028;-79
2021/10/20 11:10:37;;;;;;;22.45;4.50;;;19.10;99.90;;;;;;5054728;28;20032;-78
2021/10/20 11:13:03;;;;;;;26.60;4.50;;;19.20;99.90;;;;;;5054546;28;20025;-78
2021/10/20 11:15:32;;;;;;;23.75;4.78;;;19.20;99.90;;;;;;5053239;28;20017;-78
2021/10/20 11:17:59;;;;;;;22.60;4.00;;;19.10;99.90;;;;;;5053143;28;20032;-78
2021/10/20 11:20:29;;;;;;;27.75;5.20;;;19.00;99.90;;;;;;5054457;28;20104;-78
2021/10/20 11:22:57;;;;;;;23.85;3.85;;;19.00;99.90;;;;;;5053149;28;20021;-78
2021/10/20 11:25:24;;;;;;;22.20;4.07;;;19.20;99.90;;;;;;5054379;28;20032;-78
2021/10/20 11:27:52;;;;;;;22.83;4.25;;;19.30;99.90;;;;;;5053021;28;20024;-78
2021/10/20 11:30:20;;;;;;;22.08;4.50;;;19.10;99.90;;;;;;5054244;28;20489;-78
2021/10/20 11:32:46;;;;;;;25.02;4.28;;;19.10;99.90;;;;;;5053978;28;20051;-79
2021/10/20 11:35:20;;;;;;;22.00;3.67;;;19.30;99.90;;;;;;5054208;28;20029;-78
2021/10/20 11:38:13;;;;;;;23.80;4.28;;;19.20;99.90;;;;;;5054003;28;20068;-78
2021/10/20 11:40:52;;;;;;;29.85;4.60;;;19.20;99.90;;;;;;5053873;28;20448;-78
2021/10/20 11:43:21;;;;;;;27.35;4.45;;;19.10;99.90;;;;;;5052488;28;20028;-77
2021/10/20 11:45:48;;;;;;;25.15;4.65;;;19.10;99.90;;;;;;5053959;28;20540;-76
2021/10/20 11:48:18;;;;;;;22.85;4.13;;;19.00;99.90;;;;;;5053927;28;20035;-77
2021/10/20 11:50:51;;;;;;;23.98;4.10;;;19.10;99.90;;;;;;5054030;28;20021;-76
2021/10/20 11:53:18;;;;;;;23.17;4.07;;;19.30;99.90;;;;;;5054009;28;20037;-76
2021/10/20 11:55:46;;;;;;;16.98;3.58;;;19.30;99.90;;;;;;5053678;28;20025;-78
2021/10/20 11:58:26;;;;;;;25.33;4.05;;;19.30;99.90;;;;;;5054141;28;20064;-77
2021/10/20 12:01:05;;;;;;;23.40;4.10;;;19.30;99.90;;;;;;5054060;28;20017;-77
2021/10/20 12:03:39;;;;;;;19.88;3.60;;;19.10;99.90;;;;;;5053746;28;20026;-78
2021/10/20 12:06:08;;;;;;;21.58;4.15;;;19.10;99.90;;;;;;5053653;28;20017;-77
2021/10/20 12:08:40;;;;;;;21.40;3.97;;;18.90;99.90;;;;;;5053522;28;20028;-77
2021/10/20 12:11:06;;;;;;;19.40;3.60;;;19.10;99.90;;;;;;5051658;28;20079;-78
2021/10/20 12:13:39;;;;;;;26.35;4.75;;;19.10;99.90;;;;;;5053222;28;20032;-78
2021/10/20 12:16:07;;;;;;;20.90;3.78;;;19.30;99.90;;;;;;5053533;28;20487;-77
2021/10/20 12:18:36;;;;;;;18.20;3.60;;;19.20;99.90;;;;;;5053334;28;20439;-76
2021/10/20 12:21:02;;;;;;;23.83;4.53;;;19.10;99.90;;;;;;5053406;28;20025;-79
2021/10/20 12:23:34;;;;;;;21.13;4.07;;;19.40;99.90;;;;;;5053393;28;20021;-77
2021/10/20 12:26:01;;;;;;;27.35;4.43;;;19.60;99.90;;;;;;5053304;28;20025;-78
2021/10/20 12:28:28;;;;;;;22.48;4.10;;;19.50;99.90;;;;;;5053710;28;20029;-77
2021/10/20 12:30:54;;;;;;;20.88;3.95;;;20.20;99.90;;;;;;5053079;28;20104;-78
2021/10/20 12:33:22;;;;;;;21.25;3.70;;;20.00;99.90;;;;;;5053171;28;20029;-77
2021/10/20 12:35:49;;;;;;;24.92;5.32;;;19.80;99.90;;;;;;5053268;28;20385;-78
2021/10/20 12:38:16;;;;;;;21.52;4.30;;;19.60;99.90;;;;;;5052991;28;20040;-79
2021/10/20 12:40:45;;;;;;;22.23;4.03;;;19.50;99.90;;;;;;5053148;28;20504;-77
2021/10/20 12:43:15;;;;;;;23.48;3.83;;;19.30;99.90;;;;;;5053096;28;20021;-78
2021/10/20 12:45:42;;;;;;;20.50;3.63;;;19.20;99.90;;;;;;5051568;28;20070;-78
2021/10/20 12:48:09;;;;;;;22.55;4.15;;;19.30;99.90;;;;;;5053093;28;20389;-78
2021/10/20 12:50:41;;;;;;;23.38;4.00;;;19.10;99.90;;;;;;5051774;28;20025;-78
2021/10/20 12:53:09;;;;;;;28.02;4.63;;;19.00;99.90;;;;;;5053315;28;20435;-78
2021/10/20 12:55:38;;;;;;;25.50;4.28;;;19.00;99.90;;;;;;5053003;28;20021;-78